Time;durP1;ratioP1;P1;durP2;ratioP2;P2;SDS_P1;SDS_P2;PMS_P1;PMS_P2;Temp;Humidity;BMP_temperature;BMP_pressure;BME280_temperature;BME280_humidity;BME280_pressure;Samples;Min_cycle;Max_cycle;Signal;HPM_P1;HPM_P2
2021/03/26 00:01:49;;;;;;;24.13;13.48;;;4.10;99.90;;;;;;4162719;28;20029;-82
2021/03/26 00:03:52;;;;;;;29.13;13.40;;;4.00;99.90;;;;;;4163075;28;20030;-83
2021/03/26 00:06:04;;;;;;;21.63;11.88;;;4.10;99.90;;;;;;4161235;28;20036;-82
2021/03/26 00:08:05;;;;;;;22.42;12.82;;;4.10;99.90;;;;;;4160886;28;20066;-82
2021/03/26 00:10:11;;;;;;;27.17;13.05;;;4.10;99.90;;;;;;4161317;28;20029;-82
2021/03/26 00:12:14;;;;;;;21.38;10.95;;;4.10;99.90;;;;;;4162540;28;20017;-82
2021/03/26 00:14:15;;;;;;;23.70;12.43;;;4.20;99.90;;;;;;4162200;28;20026;-82
2021/03/26 00:16:16;;;;;;;23.10;12.30;;;4.20;99.90;;;;;;4163880;28;20109;-82
2021/03/26 00:18:16;;;;;;;28.75;13.30;;;4.20;99.90;;;;;;4162529;28;20018;-82
2021/03/26 00:20:17;;;;;;;23.55;13.43;;;4.20;99.90;;;;;;4162898;28;20465;-81
2021/03/26 00:22:17;;;;;;;21.73;12.63;;;4.30;99.90;;;;;;4164228;28;20076;-81
2021/03/26 00:24:18;;;;;;;23.00;13.20;;;4.30;99.90;;;;;;4162099;28;20065;-81
2021/03/26 00:26:19;;;;;;;24.80;12.93;;;4.40;99.90;;;;;;4164188;28;20018;-81
2021/03/26 00:28:20;;;;;;;22.13;12.88;;;4.40;99.90;;;;;;4164092;28;20121;-80
2021/03/26 00:30:22;;;;;;;27.42;14.57;;;4.40;99.90;;;;;;4162330;28;22768;-83
2021/03/26 00:32:22;;;;;;;29.58;14.80;;;4.40;99.90;;;;;;4162785;28;20050;-82
2021/03/26 00:34:23;;;;;;;17.10;12.93;;;4.40;99.90;;;;;;4162478;28;20475;-82
2021/03/26 00:36:25;;;;;;;28.40;13.55;;;4.40;99.90;;;;;;4164103;28;20022;-82
2021/03/26 00:38:26;;;;;;;24.13;14.70;;;4.50;99.90;;;;;;4162527;28;20038;-83
2021/03/26 00:40:27;;;;;;;21.10;13.45;;;4.60;99.90;;;;;;4150758;28;20385;-82
2021/03/26 00:42:27;;;;;;;26.95;15.05;;;4.60;99.90;;;;;;4161695;28;20044;-82
2021/03/26 00:44:28;;;;;;;23.65;13.32;;;4.70;99.90;;;;;;4162486;28;20041;-80
2021/03/26 00:46:31;;;;;;;26.23;14.43;;;4.80;99.90;;;;;;4162745;28;20034;-80
2021/03/26 00:48:32;;;;;;;25.65;13.20;;;4.80;99.90;;;;;;4162447;28;20759;-81
2021/03/26 00:50:42;;;;;;;24.45;13.52;;;4.90;99.90;;;;;;4161547;28;20033;-81
2021/03/26 00:52:42;;;;;;;23.40;14.93;;;4.90;99.90;;;;;;4163138;28;20471;-82
2021/03/26 00:54:43;;;;;;;26.25;13.25;;;4.90;99.90;;;;;;4163454;28;20033;-81
2021/03/26 00:56:45;;;;;;;24.42;14.63;;;4.90;99.90;;;;;;4163147;28;20043;-81
2021/03/26 00:58:46;;;;;;;26.65;13.95;;;4.90;99.90;;;;;;4163611;28;20393;-81
2021/03/26 01:00:47;;;;;;;32.83;15.07;;;4.90;99.90;;;;;;4162136;28;20033;-80
2021/03/26 01:02:48;;;;;;;26.20;15.20;;;4.90;99.90;;;;;;4162107;28;20041;-81
2021/03/26 01:04:49;;;;;;;25.27;15.60;;;4.90;99.90;;;;;;4163275;28;20080;-82
2021/03/26 01:06:50;;;;;;;22.70;16.05;;;4.90;99.90;;;;;;4159772;28;20037;-81
2021/03/26 01:08:51;;;;;;;30.20;17.05;;;5.00;99.90;;;;;;4160946;28;20495;-82
2021/03/26 01:11:17;;;;;;;29.65;16.00;;;5.00;99.90;;;;;;4163501;28;20040;-82
2021/03/26 01:13:19;;;;;;;28.77;19.05;;;5.10;99.90;;;;;;4162778;28;20026;-82
2021/03/26 01:15:23;;;;;;;32.10;19.20;;;5.10;99.90;;;;;;4163251;28;20046;-82
2021/03/26 01:17:24;;;;;;;35.83;20.60;;;5.10;99.90;;;;;;4161730;28;20384;-81
2021/03/26 01:19:25;;;;;;;30.73;20.58;;;5.10;99.90;;;;;;4163323;28;20088;-81
2021/03/26 01:21:33;;;;;;;34.08;22.15;;;5.20;99.90;;;;;;4163274;28;20455;-82
2021/03/26 01:23:33;;;;;;;36.03;21.08;;;5.10;99.90;;;;;;4163492;28;20555;-82
2021/03/26 01:25:39;;;;;;;29.80;21.65;;;5.10;99.90;;;;;;4163037;28;20029;-82
2021/03/26 01:27:39;;;;;;;35.17;22.83;;;5.00;99.90;;;;;;4163102;28;20029;-81
2021/03/26 01:29:40;;;;;;;36.40;24.17;;;5.00;99.90;;;;;;4163008;28;20484;-82
2021/03/26 01:31:41;;;;;;;34.97;24.02;;;5.00;99.90;;;;;;4161524;28;20124;-82
2021/03/26 01:33:43;;;;;;;36.45;24.85;;;4.90;99.90;;;;;;4162875;28;20030;-82
2021/03/26 01:35:44;;;;;;;43.78;25.17;;;4.80;99.90;;;;;;4161062;28;20033;-82
2021/03/26 01:37:45;;;;;;;42.60;25.77;;;4.70;99.90;;;;;;4161699;28;20021;-81
2021/03/26 01:39:46;;;;;;;45.42;28.05;;;4.60;99.90;;;;;;4162074;28;20037;-81
2021/03/26 01:41:48;;;;;;;48.38;27.65;;;4.50;99.90;;;;;;4161444;28;20037;-81
2021/03/26 01:43:49;;;;;;;47.83;28.25;;;4.40;99.90;;;;;;4161325;28;20025;-82
2021/03/26 01:45:51;;;;;;;49.33;29.98;;;4.40;99.90;;;;;;4162816;28;20103;-82
2021/03/26 01:47:54;;;;;;;50.80;30.63;;;4.30;99.90;;;;;;4157873;28;20366;-82
2021/03/26 01:49:55;;;;;;;49.17;30.35;;;4.20;99.90;;;;;;4157880;28;20117;-81
2021/03/26 01:51:56;;;;;;;53.03;30.80;;;4.20;99.90;;;;;;4151485;28;20038;-81
2021/03/26 01:53:58;;;;;;;56.72;33.17;;;4.20;99.90;;;;;;4154377;28;20113;-82
2021/03/26 01:56:00;;;;;;;57.55;33.83;;;4.10;99.90;;;;;;4158232;28;20033;-82
2021/03/26 01:58:01;;;;;;;61.38;32.78;;;4.00;99.90;;;;;;4159444;28;20488;-82
2021/03/26 02:00:06;;;;;;;56.83;33.17;;;4.00;99.90;;;;;;4158892;28;20032;-81
2021/03/26 02:02:14;;;;;;;66.18;35.75;;;3.90;99.90;;;;;;4157818;28;20124;-81
2021/03/26 02:04:38;;;;;;;63.95;37.10;;;3.90;99.90;;;;;;4159734;28;20096;-82
2021/03/26 02:06:46;;;;;;;67.43;34.20;;;3.80;99.90;;;;;;4153725;28;20113;-82
2021/03/26 02:08:47;;;;;;;62.35;35.95;;;3.70;99.90;;;;;;4162485;28;20087;-82
2021/03/26 02:10:49;;;;;;;63.35;34.67;;;3.70;99.90;;;;;;4162708;28;20055;-82
2021/03/26 02:12:57;;;;;;;63.92;36.60;;;3.70;99.90;;;;;;4161285;28;20115;-82
2021/03/26 02:15:03;;;;;;;64.68;36.35;;;3.60;99.90;;;;;;4162030;28;20033;-82
2021/03/26 02:17:05;;;;;;;65.22;37.10;;;3.60;99.90;;;;;;4160276;28;20049;-82
2021/03/26 02:19:21;;;;;;;74.65;38.17;;;3.50;99.90;;;;;;4161223;28;20037;-81
2021/03/26 02:21:26;;;;;;;65.70;36.05;;;3.50;99.90;;;;;;4162586;28;20038;-82
2021/03/26 02:23:28;;;;;;;74.10;39.95;;;3.50;99.90;;;;;;4162514;28;20061;-81
2021/03/26 02:25:29;;;;;;;74.22;38.67;;;3.60;99.90;;;;;;4162244;28;20030;-82
2021/03/26 02:27:33;;;;;;;74.70;38.05;;;3.50;99.90;;;;;;4161354;28;20045;-83
2021/03/26 02:29:34;;;;;;;81.75;39.88;;;3.50;99.90;;;;;;4161123;28;20041;-83
2021/03/26 02:31:35;;;;;;;70.95;37.25;;;3.50;99.90;;;;;;4162763;28;20033;-82
2021/03/26 02:33:36;;;;;;;81.55;39.65;;;3.40;99.90;;;;;;4162343;28;20034;-82
2021/03/26 02:35:58;;;;;;;68.88;38.50;;;3.40;99.90;;;;;;4155976;28;20048;-82
2021/03/26 02:38:07;;;;;;;70.68;37.55;;;3.40;99.90;;;;;;4121123;28;20029;-83
2021/03/26 02:40:15;;;;;;;75.10;40.28;;;3.40;99.90;;;;;;4160681;28;20041;-82
2021/03/26 02:42:26;;;;;;;68.80;38.20;;;3.50;99.90;;;;;;4160947;28;20029;-82
2021/03/26 02:44:51;;;;;;;76.30;39.20;;;3.60;99.90;;;;;;4162242;28;20095;-82
2021/03/26 02:47:08;;;;;;;83.97;40.83;;;3.70;99.90;;;;;;4162461;28;20030;-82
2021/03/26 02:49:20;;;;;;;64.72;37.95;;;3.70;99.90;;;;;;4160544;28;20037;-82
2021/03/26 02:51:26;;;;;;;76.25;40.75;;;3.70;99.90;;;;;;4162392;28;20500;-82
2021/03/26 02:53:40;;;;;;;73.30;40.60;;;3.70;99.90;;;;;;4160729;28;20377;-83
2021/03/26 02:55:50;;;;;;;;;;;3.60;99.90;;;;;;4161347;28;20038;-83
2021/03/26 02:58:10;;;;;;;77.22;40.58;;;3.60;99.90;;;;;;4161106;28;19915;-83
2021/03/26 03:00:14;;;;;;;85.55;42.90;;;3.70;99.90;;;;;;4157716;28;20025;-82
2021/03/26 03:02:16;;;;;;;89.75;41.35;;;3.80;99.90;;;;;;4159420;28;20037;-82
2021/03/26 03:04:33;;;;;;;86.75;43.00;;;3.90;99.90;;;;;;4162023;28;20033;-83
2021/03/26 03:07:06;;;;;;;79.68;43.67;;;4.00;99.90;;;;;;4159480;28;20696;-83
2021/03/26 03:09:09;;;;;;;85.68;41.80;;;4.00;99.90;;;;;;4156054;28;20029;-83
2021/03/26 03:11:17;;;;;;;82.85;44.40;;;4.00;99.90;;;;;;4159906;28;20388;-83
2021/03/26 03:13:39;;;;;;;83.45;44.08;;;4.10;99.90;;;;;;4159582;28;20022;-83
2021/03/26 03:16:02;;;;;;;86.65;44.38;;;4.20;99.90;;;;;;4163484;28;20030;-83
2021/03/26 03:18:23;;;;;;;83.63;44.17;;;4.30;99.90;;;;;;4151453;28;20030;-82
2021/03/26 03:20:56;;;;;;;92.72;45.75;;;4.40;99.90;;;;;;4163367;28;20025;-82
2021/03/26 03:23:19;;;;;;;84.60;44.93;;;4.40;99.90;;;;;;4151792;28;20048;-82
2021/03/26 03:25:24;;;;;;;87.38;47.95;;;4.50;99.90;;;;;;4161871;28;20488;-82
2021/03/26 03:28:00;;;;;;;94.05;48.33;;;4.60;99.90;;;;;;4163502;28;20033;-82
2021/03/26 03:30:17;;;;;;;82.78;44.72;;;4.70;99.90;;;;;;4156886;28;20026;-81
2021/03/26 03:32:31;;;;;;;84.95;46.05;;;4.80;99.90;;;;;;4161706;28;20056;-82
2021/03/26 03:34:36;;;;;;;95.35;48.75;;;4.90;99.90;;;;;;4176181;28;20112;-82
2021/03/26 03:36:50;;;;;;;98.53;50.03;;;5.00;99.90;;;;;;4150000;28;20048;-82
2021/03/26 03:39:27;;;;;;;92.63;48.95;;;5.10;99.90;;;;;;4164771;28;20037;-83
2021/03/26 03:41:52;;;;;;;89.50;46.80;;;5.10;99.90;;;;;;4160676;28;20117;-82
2021/03/26 03:44:01;;;;;;;95.63;49.15;;;5.20;99.90;;;;;;4153903;28;20534;-83
2021/03/26 03:46:18;;;;;;;97.80;49.92;;;5.30;99.90;;;;;;4164257;28;20526;-83
2021/03/26 03:48:32;;;;;;;99.35;52.38;;;5.30;99.90;;;;;;4163443;28;20037;-83
2021/03/26 03:50:44;;;;;;;91.75;48.47;;;5.30;99.90;;;;;;4164451;28;20366;-83
2021/03/26 03:52:53;;;;;;;97.10;51.28;;;5.40;99.90;;;;;;4164387;28;20029;-83
2021/03/26 03:54:54;;;;;;;91.72;49.08;;;5.40;99.90;;;;;;4160511;28;20033;-83
2021/03/26 03:57:18;;;;;;;93.40;49.58;;;5.40;99.90;;;;;;4162539;28;20032;-83
2021/03/26 03:59:29;;;;;;;92.85;49.17;;;5.50;99.90;;;;;;4164574;28;20109;-83
2021/03/26 04:01:45;;;;;;;90.63;47.90;;;5.50;99.90;;;;;;4163153;28;20140;-83
2021/03/26 04:04:12;;;;;;;95.20;49.47;;;5.50;99.90;;;;;;4163217;28;20116;-83
2021/03/26 04:06:19;;;;;;;100.65;50.20;;;5.60;99.90;;;;;;4148229;28;20025;-83
2021/03/26 04:08:25;;;;;;;92.15;47.97;;;5.60;99.90;;;;;;4164622;28;20083;-83
2021/03/26 04:10:29;;;;;;;96.22;47.92;;;5.70;99.90;;;;;;4162307;28;20037;-82
2021/03/26 04:12:36;;;;;;;91.70;48.38;;;5.70;99.90;;;;;;4163168;28;20053;-83
2021/03/26 04:14:42;;;;;;;95.50;51.38;;;5.80;99.90;;;;;;4162701;28;20059;-83
2021/03/26 04:16:46;;;;;;;90.28;45.58;;;5.90;99.90;;;;;;4164012;28;20050;-83
2021/03/26 04:19:09;;;;;;;95.80;48.85;;;6.00;99.90;;;;;;4164112;28;20044;-83
2021/03/26 04:21:24;;;;;;;91.82;49.67;;;6.10;99.90;;;;;;4154211;28;20022;-83
2021/03/26 04:23:35;;;;;;;85.80;44.22;;;6.20;99.90;;;;;;4162893;28;20030;-83
2021/03/26 04:25:41;;;;;;;84.50;47.50;;;6.30;99.90;;;;;;4158785;28;20029;-83
2021/03/26 04:27:45;;;;;;;77.35;44.70;;;6.40;99.90;;;;;;4164637;28;20040;-83
2021/03/26 04:29:55;;;;;;;84.40;41.92;;;6.50;99.90;;;;;;4164208;28;20033;-83
2021/03/26 04:32:08;;;;;;;74.97;40.88;;;6.50;99.90;;;;;;4164146;28;20047;-83
2021/03/26 04:34:09;;;;;;;73.90;41.97;;;6.60;99.90;;;;;;4163382;28;20453;-82
2021/03/26 04:36:14;;;;;;;76.55;41.58;;;6.60;99.90;;;;;;4164021;28;20029;-83
2021/03/26 04:38:36;;;;;;;68.97;39.38;;;6.70;99.90;;;;;;4162838;28;20018;-83
2021/03/26 04:40:44;;;;;;;66.10;38.97;;;6.80;99.90;;;;;;4157114;28;20543;-83
2021/03/26 04:42:51;;;;;;;66.53;38.35;;;6.80;99.90;;;;;;4163675;28;20037;-83
2021/03/26 04:44:54;;;;;;;68.93;38.88;;;6.80;99.90;;;;;;4163886;28;20116;-83
2021/03/26 04:47:06;;;;;;;65.05;40.30;;;6.80;99.90;;;;;;4162223;28;20084;-83
2021/03/26 04:49:13;;;;;;;59.00;36.67;;;6.80;99.90;;;;;;4158065;28;20037;-83
2021/03/26 04:51:26;;;;;;;57.63;33.47;;;6.80;99.90;;;;;;4161423;28;20021;-83
2021/03/26 04:53:41;;;;;;;69.60;40.03;;;6.90;99.90;;;;;;4163715;28;20123;-83
2021/03/26 04:55:58;;;;;;;59.45;37.25;;;6.90;99.90;;;;;;4154794;28;20056;-82
2021/03/26 04:58:14;;;;;;;60.42;35.92;;;6.90;99.90;;;;;;4163587;28;20034;-83
2021/03/26 05:00:24;;;;;;;57.10;35.33;;;6.90;99.90;;;;;;4160341;28;20420;-82
2021/03/26 05:02:25;;;;;;;50.30;33.78;;;6.90;99.90;;;;;;4162073;28;20547;-82
2021/03/26 05:04:31;;;;;;;53.72;35.60;;;6.90;99.90;;;;;;4154521;28;20092;-83
2021/03/26 05:06:37;;;;;;;55.17;35.38;;;7.00;99.90;;;;;;4161385;28;20113;-83
2021/03/26 05:08:42;;;;;;;49.03;34.17;;;7.00;99.90;;;;;;4163411;28;20366;-83
2021/03/26 05:10:44;;;;;;;51.50;33.60;;;7.10;99.90;;;;;;4148309;28;20114;-83
2021/03/26 05:12:52;;;;;;;55.55;35.28;;;7.10;99.90;;;;;;4162073;28;20029;-83
2021/03/26 05:14:59;;;;;;;53.00;34.25;;;7.10;99.90;;;;;;4163143;28;20033;-83
2021/03/26 05:17:08;;;;;;;56.40;35.15;;;7.10;99.90;;;;;;4163097;28;20045;-83
2021/03/26 05:19:21;;;;;;;54.83;36.55;;;7.00;99.90;;;;;;4162829;28;20033;-83
2021/03/26 05:21:32;;;;;;;57.20;36.33;;;7.00;99.90;;;;;;4161976;28;20396;-83
2021/03/26 05:23:41;;;;;;;48.03;32.97;;;7.00;99.90;;;;;;4162986;28;20037;-83
2021/03/26 05:25:49;;;;;;;55.95;35.70;;;7.00;99.90;;;;;;4160824;28;20560;-84
2021/03/26 05:27:50;;;;;;;49.50;33.42;;;7.00;99.90;;;;;;4163290;28;20091;-83
2021/03/26 05:29:51;;;;;;;56.90;36.22;;;7.00;99.90;;;;;;4163111;28;20083;-83
2021/03/26 05:32:06;;;;;;;56.35;35.58;;;7.00;99.90;;;;;;4157735;28;20057;-83
2021/03/26 05:34:24;;;;;;;55.50;34.25;;;7.00;99.90;;;;;;4159808;28;20025;-83
2021/03/26 05:36:37;;;;;;;55.67;34.03;;;7.10;99.90;;;;;;4155918;28;20030;-83
2021/03/26 05:38:41;;;;;;;54.88;31.88;;;7.10;99.90;;;;;;4160611;28;20034;-84
2021/03/26 05:40:47;;;;;;;;;;;7.10;99.90;;;;;;4162093;28;20460;-84
2021/03/26 05:43:24;;;;;;;46.60;31.90;;;7.20;99.90;;;;;;4161243;28;19936;-83
2021/03/26 05:45:38;;;;;;;51.13;32.25;;;7.20;99.90;;;;;;4159047;28;20029;-84
2021/03/26 05:48:04;;;;;;;53.33;32.55;;;7.20;99.90;;;;;;4161910;28;20040;-84
2021/03/26 05:50:23;;;;;;;54.83;33.75;;;7.30;99.90;;;;;;4159243;28;20180;-83
2021/03/26 05:52:44;;;;;;;47.25;30.98;;;7.30;99.90;;;;;;4154388;28;20472;-84
2021/03/26 05:55:20;;;;;;;52.30;34.47;;;7.30;99.90;;;;;;4159478;28;20441;-84
2021/03/26 05:57:43;;;;;;;52.30;33.10;;;7.30;99.90;;;;;;4086273;29;20035;-84
2021/03/26 06:00:02;;;;;;;45.30;28.80;;;7.30;99.90;;;;;;4140632;28;20060;-83
2021/03/26 06:02:24;;;;;;;50.60;32.15;;;7.30;99.90;;;;;;4152893;28;20038;-83
2021/03/26 06:04:53;;;;;;;45.03;30.75;;;7.40;99.90;;;;;;4159821;28;20116;-83
2021/03/26 06:07:26;;;;;;;44.22;31.05;;;7.40;99.90;;;;;;4147319;28;20500;-83
2021/03/26 06:09:56;;;;;;;43.97;31.15;;;7.40;99.90;;;;;;4153798;28;20125;-83
2021/03/26 06:12:21;;;;;;;51.22;32.00;;;7.40;99.90;;;;;;4160259;28;20514;-84
2021/03/26 06:14:32;;;;;;;45.38;30.15;;;7.50;99.90;;;;;;4160563;28;20048;-84
2021/03/26 06:17:09;;;;;;;41.58;27.00;;;7.50;99.90;;;;;;4162037;28;20076;-82
2021/03/26 06:19:35;;;;;;;43.25;28.73;;;7.60;99.90;;;;;;4145053;28;20147;-84
2021/03/26 06:21:43;;;;;;;41.33;28.55;;;7.60;99.90;;;;;;4162269;28;20038;-84
2021/03/26 06:23:58;;;;;;;45.03;27.33;;;7.70;99.90;;;;;;4162077;28;20029;-83
2021/03/26 06:26:14;;;;;;;43.58;28.95;;;7.70;99.90;;;;;;4177043;28;20421;-83
2021/03/26 06:28:35;;;;;;;43.63;28.90;;;7.80;99.90;;;;;;4151257;28;20097;-84
2021/03/26 06:31:06;;;;;;;44.42;28.95;;;7.80;99.90;;;;;;4150252;28;20037;-84
2021/03/26 06:33:10;;;;;;;41.47;29.10;;;7.90;99.90;;;;;;4160751;28;20029;-84
2021/03/26 06:35:38;;;;;;;43.03;29.00;;;7.90;99.90;;;;;;4162452;28;20047;-81
2021/03/26 06:38:16;;;;;;;43.90;25.73;;;8.00;99.90;;;;;;4161049;28;20040;-81
2021/03/26 06:40:44;;;;;;;40.88;26.25;;;8.00;99.90;;;;;;4159921;28;20040;-82
2021/03/26 06:43:01;;;;;;;36.67;25.23;;;8.00;99.90;;;;;;4146373;28;20636;-83
2021/03/26 06:45:31;;;;;;;41.10;26.67;;;8.10;99.90;;;;;;4149865;28;20087;-83
2021/03/26 06:47:50;;;;;;;40.10;26.67;;;8.10;99.90;;;;;;4161121;28;20568;-82
2021/03/26 06:50:06;;;;;;;42.03;27.58;;;8.20;99.90;;;;;;4165063;28;20033;-84
2021/03/26 06:52:25;;;;;;;38.25;27.35;;;8.30;99.90;;;;;;4165570;28;20021;-83
2021/03/26 06:54:49;;;;;;;44.80;28.83;;;8.30;99.90;;;;;;4176582;28;20041;-84
2021/03/26 06:56:49;;;;;;;38.60;27.25;;;8.40;99.90;;;;;;4179286;28;20029;-84
2021/03/26 06:59:08;;;;;;;41.03;26.67;;;8.40;99.90;;;;;;4165062;28;20065;-84
2021/03/26 07:01:36;;;;;;;36.60;25.13;;;8.50;99.90;;;;;;4159745;28;20096;-84
2021/03/26 07:04:05;;;;;;;39.33;25.50;;;8.60;99.90;;;;;;4154054;28;20025;-83
2021/03/26 07:06:47;;;;;;;41.08;24.80;;;8.70;99.90;;;;;;4165170;28;20065;-83
2021/03/26 07:09:06;;;;;;;39.70;27.52;;;8.80;99.90;;;;;;4145302;28;20041;-83
2021/03/26 07:11:17;;;;;;;39.42;27.42;;;8.80;99.90;;;;;;4152083;28;20037;-84
2021/03/26 07:13:36;;;;;;;42.25;27.08;;;8.90;99.90;;;;;;4155075;28;20027;-82
2021/03/26 07:16:01;;;;;;;36.20;23.40;;;8.90;99.90;;;;;;4154354;28;20042;-83
2021/03/26 07:18:13;;;;;;;34.28;24.35;;;9.00;99.90;;;;;;4148602;28;20048;-83
2021/03/26 07:20:17;;;;;;;40.42;26.90;;;9.00;99.90;;;;;;4147622;28;20108;-84
2021/03/26 07:22:39;;;;;;;34.88;24.52;;;9.10;99.90;;;;;;4160767;28;20040;-83
2021/03/26 07:24:58;;;;;;;38.67;25.70;;;9.20;99.90;;;;;;4179617;28;20036;-83
2021/03/26 07:27:45;;;;;;;40.13;25.20;;;9.30;99.90;;;;;;4160129;28;20064;-83
2021/03/26 07:30:10;;;;;;;37.67;25.90;;;9.30;99.90;;;;;;4135487;28;20049;-83
2021/03/26 07:32:44;;;;;;;39.50;26.67;;;9.30;99.90;;;;;;4156048;28;20044;-83
2021/03/26 07:34:44;;;;;;;37.38;26.75;;;9.30;99.90;;;;;;4157723;28;20121;-83
2021/03/26 07:36:55;;;;;;;41.63;26.95;;;9.30;99.90;;;;;;4161168;28;20025;-84
2021/03/26 07:39:04;;;;;;;39.05;26.40;;;9.20;99.90;;;;;;4164611;28;20033;-83
2021/03/26 07:41:26;;;;;;;43.45;28.58;;;9.20;99.90;;;;;;4164403;28;20508;-83
2021/03/26 07:43:58;;;;;;;44.15;28.52;;;9.20;99.90;;;;;;4154561;28;20412;-84
2021/03/26 07:46:23;;;;;;;35.67;25.42;;;9.20;99.90;;;;;;4159546;28;20068;-84
2021/03/26 07:48:41;;;;;;;37.90;27.75;;;9.20;99.90;;;;;;4157062;28;20112;-84
2021/03/26 07:51:00;;;;;;;40.30;27.27;;;9.20;99.90;;;;;;4153484;28;20050;-83
2021/03/26 07:53:03;;;;;;;44.03;29.58;;;9.20;99.90;;;;;;4157868;28;20034;-83
2021/03/26 07:55:27;;;;;;;38.75;25.73;;;9.20;99.90;;;;;;4159252;28;20030;-83
2021/03/26 07:57:38;;;;;;;45.33;26.60;;;9.20;99.90;;;;;;4159738;28;20369;-84
2021/03/26 08:00:23;;;;;;;40.50;26.40;;;9.20;99.90;;;;;;4163424;28;20452;-83
2021/03/26 08:02:38;;;;;;;39.00;26.40;;;9.30;99.90;;;;;;4094691;28;20126;-83
2021/03/26 08:04:57;;;;;;;38.55;25.52;;;9.30;99.90;;;;;;4113116;28;20114;-82
2021/03/26 08:07:31;;;;;;;40.88;27.63;;;9.30;99.90;;;;;;4113465;28;20033;-84
2021/03/26 08:09:44;;;;;;;40.40;25.50;;;9.40;99.90;;;;;;4161053;28;20041;-83
2021/03/26 08:11:57;;;;;;;40.75;26.05;;;9.50;99.90;;;;;;4153426;28;20038;-84
2021/03/26 08:14:24;;;;;;;34.70;25.20;;;9.60;99.90;;;;;;4159241;28;20057;-83
2021/03/26 08:16:57;;;;;;;40.55;28.00;;;9.60;99.90;;;;;;4161279;28;20053;-84
2021/03/26 08:19:23;;;;;;;32.88;21.20;;;9.70;99.90;;;;;;4147334;28;20033;-84
2021/03/26 08:21:38;;;;;;;38.80;24.42;;;9.80;99.90;;;;;;4161669;28;20033;-84
2021/03/26 08:23:54;;;;;;;32.08;21.17;;;9.90;99.90;;;;;;4161586;28;20048;-84
2021/03/26 08:26:10;;;;;;;36.25;23.40;;;9.90;99.90;;;;;;4161540;28;20144;-84
2021/03/26 08:28:24;;;;;;;36.70;24.05;;;10.00;99.90;;;;;;4161977;28;20033;-82
2021/03/26 08:30:45;;;;;;;;;;;10.00;99.90;;;;;;4170081;28;20404;-91
2021/03/26 08:32:53;;;;;;;37.80;22.48;;;10.10;99.90;;;;;;4163056;28;19913;-89
2021/03/26 08:35:19;;;;;;;36.60;25.30;;;10.20;99.90;;;;;;4151996;28;20439;-90
2021/03/26 08:37:36;;;;;;;42.20;26.40;;;10.30;99.90;;;;;;4162559;28;20032;-91
2021/03/26 08:39:48;;;;;;;38.47;26.25;;;10.40;99.90;;;;;;4149203;28;20041;-83
2021/03/26 08:42:03;;;;;;;40.75;27.80;;;10.50;99.90;;;;;;4161893;28;20416;-87
2021/03/26 08:44:04;;;;;;;35.58;24.65;;;10.60;99.90;;;;;;4162871;28;20021;-86
2021/03/26 08:46:21;;;;;;;41.00;29.45;;;10.70;99.90;;;;;;4161989;28;20108;-87
2021/03/26 08:48:56;;;;;;;33.97;22.98;;;10.80;99.90;;;;;;4160945;28;20057;-87
2021/03/26 08:51:35;;;;;;;32.13;23.25;;;10.90;99.90;;;;;;4161938;28;20029;-88
2021/03/26 08:53:49;;;;;;;36.08;25.45;;;11.00;99.90;;;;;;4157628;28;20057;-87
2021/03/26 08:56:11;;;;;;;35.47;21.60;;;11.20;99.90;;;;;;4161366;28;20029;-86
2021/03/26 08:58:24;;;;;;;34.83;21.35;;;11.30;99.90;;;;;;4162868;28;20061;-88
2021/03/26 09:00:43;;;;;;;29.05;22.23;;;11.40;99.90;;;;;;4152981;28;20421;-87
2021/03/26 09:03:06;;;;;;;28.02;19.60;;;11.40;99.90;;;;;;4156498;28;20086;-90
2021/03/26 09:05:09;;;;;;;30.48;21.70;;;11.50;99.90;;;;;;4153704;28;20092;-89
2021/03/26 09:07:28;;;;;;;34.63;22.10;;;11.60;99.90;;;;;;4151110;28;20481;-90
2021/03/26 09:09:51;;;;;;;32.22;20.23;;;11.80;99.90;;;;;;4167469;28;20044;-92
2021/03/26 09:12:18;;;;;;;29.10;20.85;;;11.90;99.90;;;;;;4176775;28;20516;-90
2021/03/26 09:14:24;;;;;;;30.60;19.58;;;12.00;99.90;;;;;;4159293;28;20022;-89
2021/03/26 09:16:31;;;;;;;31.58;20.17;;;12.20;99.90;;;;;;4153396;28;20053;-89
2021/03/26 09:18:51;;;;;;;27.83;20.23;;;12.30;99.90;;;;;;4159947;28;20390;-88
2021/03/26 09:21:07;;;;;;;32.00;19.10;;;12.50;99.90;;;;;;4161273;28;20033;-89
2021/03/26 09:23:28;;;;;;;28.00;20.08;;;12.50;99.90;;;;;;4161351;28;20045;-89
2021/03/26 09:25:46;;;;;;;22.63;16.00;;;12.60;99.90;;;;;;4161125;28;20045;-88
2021/03/26 09:27:52;;;;;;;25.17;18.90;;;12.70;99.90;;;;;;4156542;28;20030;-90
2021/03/26 09:30:26;;;;;;;22.10;17.70;;;12.70;99.90;;;;;;4152999;28;20048;-89
2021/03/26 09:32:36;;;;;;;27.98;16.40;;;12.80;99.90;;;;;;4158477;28;20047;-89
2021/03/26 09:34:44;;;;;;;29.30;18.05;;;13.00;99.90;;;;;;4161285;28;20081;-88
2021/03/26 09:36:47;;;;;;;26.85;16.45;;;13.20;99.90;;;;;;4161146;28;20075;-84
2021/03/26 09:39:08;;;;;;;21.83;14.35;;;13.40;99.90;;;;;;4162560;28;20455;-84
2021/03/26 09:41:20;;;;;;;24.90;13.18;;;13.40;99.90;;;;;;4160880;28;20034;-86
2021/03/26 09:43:49;;;;;;;19.13;14.88;;;13.40;99.90;;;;;;4158347;28;20521;-86
2021/03/26 09:46:00;;;;;;;21.02;14.18;;;13.50;99.90;;;;;;4160779;28;20068;-90
2021/03/26 09:48:41;;;;;;;23.23;15.60;;;13.70;99.90;;;;;;4160201;28;20111;-87
2021/03/26 09:50:56;;;;;;;22.77;16.10;;;13.90;99.90;;;;;;4177631;28;20403;-87
2021/03/26 09:52:57;;;;;;;20.23;15.50;;;14.10;99.90;;;;;;4156289;28;20034;-90
2021/03/26 09:55:07;;;;;;;20.00;14.90;;;14.20;99.90;;;;;;4161602;28;20103;-88
2021/03/26 09:57:32;;;;;;;25.98;14.32;;;14.50;99.90;;;;;;4134897;28;20045;-87
2021/03/26 09:59:50;;;;;;;20.95;14.20;;;14.50;99.90;;;;;;4162503;28;20037;-86
2021/03/26 10:02:00;;;;;;;26.13;14.73;;;14.60;99.90;;;;;;4150386;28;20046;-85
2021/03/26 10:04:33;;;;;;;21.73;13.82;;;14.60;99.90;;;;;;4152472;28;20415;-86
2021/03/26 10:07:13;;;;;;;17.52;12.23;;;14.50;99.90;;;;;;4122046;28;20083;-88
2021/03/26 10:09:37;;;;;;;21.27;15.00;;;14.20;99.90;;;;;;4148339;28;20040;-87
2021/03/26 10:11:58;;;;;;;21.92;15.05;;;14.20;99.90;;;;;;4150352;28;20050;-86
2021/03/26 10:14:14;;;;;;;23.17;14.65;;;14.20;99.90;;;;;;4158853;28;20030;-87
2021/03/26 10:16:21;;;;;;;18.17;12.88;;;14.20;99.90;;;;;;4158918;28;20440;-90
2021/03/26 10:18:43;;;;;;;17.75;12.10;;;14.10;99.90;;;;;;4160881;28;20326;-87
2021/03/26 10:20:53;;;;;;;19.33;13.88;;;14.20;99.90;;;;;;4162566;28;20033;-89
2021/03/26 10:23:14;;;;;;;19.17;14.18;;;14.20;99.90;;;;;;4160798;28;20392;-86
2021/03/26 10:25:43;;;;;;;20.92;14.07;;;14.30;99.90;;;;;;4159399;28;20025;-86
2021/03/26 10:27:55;;;;;;;20.80;12.65;;;14.20;99.90;;;;;;4164194;28;20044;-85
2021/03/26 10:30:11;;;;;;;25.42;12.45;;;14.30;99.90;;;;;;4165222;28;20049;-86
2021/03/26 10:32:21;;;;;;;16.88;10.43;;;14.30;99.90;;;;;;4164839;28;20037;-85
2021/03/26 10:34:35;;;;;;;16.67;11.88;;;14.60;99.90;;;;;;4153437;28;20048;-86
2021/03/26 10:36:41;;;;;;;19.35;12.57;;;14.70;99.90;;;;;;4149649;28;20022;-85
2021/03/26 10:39:03;;;;;;;15.60;11.43;;;14.70;99.90;;;;;;4173977;28;20048;-87
2021/03/26 10:41:12;;;;;;;16.73;10.57;;;;;;;;;;4151901;28;20640;-87
2021/03/26 10:43:19;;;;;;;20.77;11.88;;;;;;;;;;4163831;28;20029;-87
2021/03/26 10:45:45;;;;;;;15.38;8.07;;;15.40;99.90;;;;;;4164869;28;20036;-87
2021/03/26 10:47:54;;;;;;;14.93;8.57;;;15.40;99.90;;;;;;4158709;28;20116;-86
2021/03/26 10:50:05;;;;;;;15.95;11.88;;;14.60;99.90;;;;;;4164664;28;20607;-86
2021/03/26 10:52:30;;;;;;;15.75;10.23;;;14.80;99.90;;;;;;4163084;28;20021;-87
2021/03/26 10:54:44;;;;;;;15.80;9.65;;;14.90;99.90;;;;;;4159956;28;20033;-88
2021/03/26 10:57:12;;;;;;;18.23;9.15;;;15.40;99.90;;;;;;4150377;28;20486;-84
2021/03/26 10:59:33;;;;;;;15.30;9.02;;;;;;;;;;4162984;28;20504;-85
2021/03/26 11:01:39;;;;;;;15.35;8.07;;;;;;;;;;4148156;28;20119;-85
2021/03/26 11:03:56;;;;;;;11.85;8.07;;;17.20;99.90;;;;;;4163256;28;20124;-88
2021/03/26 11:06:08;;;;;;;10.65;8.32;;;16.60;99.90;;;;;;4155178;28;20033;-87
2021/03/26 11:08:45;;;;;;;14.27;8.75;;;16.70;99.90;;;;;;4164587;28;20124;-85
2021/03/26 11:11:00;;;;;;;11.25;7.63;;;16.90;99.90;;;;;;4157206;28;20034;-88
2021/03/26 11:13:28;;;;;;;11.75;7.57;;;16.60;99.90;;;;;;4179327;28;20033;-88
2021/03/26 11:15:35;;;;;;;13.85;6.63;;;16.10;99.90;;;;;;4163182;28;20491;-87
2021/03/26 11:17:40;;;;;;;14.60;6.53;;;15.90;99.90;;;;;;4158085;28;20041;-85
2021/03/26 11:20:17;;;;;;;13.05;6.93;;;15.40;99.90;;;;;;4163930;28;20172;-88
2021/03/26 11:22:24;;;;;;;11.00;7.40;;;15.20;99.90;;;;;;4154325;28;20111;-87
2021/03/26 11:24:25;;;;;;;13.10;8.35;;;;;;;;;;4158849;28;20135;-88
2021/03/26 11:26:33;;;;;;;10.35;7.25;;;17.30;99.90;;;;;;4158188;28;20509;-88